Time;durP1;ratioP1;P1;durP2;ratioP2;P2;SDS_P1;SDS_P2;PMS_P1;PMS_P2;Temp;Humidity;BMP_temperature;BMP_pressure;BME280_temperature;BME280_humidity;BME280_pressure;Samples;Min_cycle;Max_cycle;Signal;HPM_P1;HPM_P2
2021/05/17 00:00:53;;;;;;;4.45;2.00;;;;;;;10.28;68.14;99691.97;5026277;28;20031;-67
2021/05/17 00:03:19;;;;;;;5.57;2.10;;;;;;;10.09;68.06;99683.97;5036931;28;20042;-67
2021/05/17 00:05:45;;;;;;;3.53;1.80;;;;;;;10.11;68.47;99682.16;5020926;28;20411;-69
2021/05/17 00:08:12;;;;;;;5.20;1.88;;;;;;;10.02;68.60;99695.53;5017898;28;20044;-68
2021/05/17 00:10:37;;;;;;;5.05;2.00;;;;;;;9.76;69.27;99685.19;5019899;28;20044;-68
2021/05/17 00:13:03;;;;;;;6.93;2.40;;;;;;;9.90;69.22;99701.19;5002138;28;20028;-68
2021/05/17 00:15:29;;;;;;;5.60;1.80;;;;;;;9.84;69.30;99693.59;5019091;28;20704;-67
2021/05/17 00:17:55;;;;;;;5.38;1.67;;;;;;;9.83;69.08;99695.38;5035836;28;20057;-68
2021/05/17 00:20:22;;;;;;;4.90;1.80;;;;;;;9.81;69.01;99691.09;5017118;28;20030;-68
2021/05/17 00:22:48;;;;;;;6.60;2.13;;;;;;;9.74;69.19;99692.22;5021178;28;20466;-69
2021/05/17 00:25:14;;;;;;;4.47;1.80;;;;;;;9.66;69.06;99689.88;5019715;28;20137;-68
2021/05/17 00:27:41;;;;;;;5.00;1.75;;;;;;;9.63;69.38;99700.44;5052730;28;20116;-68
2021/05/17 00:30:07;;;;;;;6.90;1.87;;;;;;;9.53;69.80;99702.50;5017732;28;20080;-68
2021/05/17 00:32:33;;;;;;;5.78;1.55;;;;;;;9.50;69.91;99696.53;5019351;28;20297;-68
2021/05/17 00:34:58;;;;;;;4.90;1.77;;;;;;;9.32;69.65;99698.84;5034454;28;20493;-68
2021/05/17 00:37:24;;;;;;;6.43;1.77;;;;;;;9.30;70.14;99702.41;5017616;28;20039;-68
2021/05/17 00:39:50;;;;;;;4.07;1.85;;;;;;;9.01;70.48;99675.56;5050216;28;20026;-68
2021/05/17 00:42:16;;;;;;;5.95;1.77;;;;;;;8.96;71.03;99697.44;5018093;28;20029;-67
2021/05/17 00:44:42;;;;;;;5.43;2.00;;;;;;;8.86;71.90;99707.31;5019511;28;20026;-67
2021/05/17 00:47:11;;;;;;;3.53;1.80;;;;;;;8.76;72.40;99704.13;5021941;28;20119;-67
2021/05/17 00:49:39;;;;;;;3.63;1.60;;;;;;;8.87;72.21;99715.97;5012381;28;20033;-68
2021/05/17 00:52:05;;;;;;;7.20;2.28;;;;;;;8.93;71.31;99713.19;5024230;28;20043;-68
2021/05/17 00:54:31;;;;;;;3.72;1.63;;;;;;;8.64;72.10;99712.34;5021613;28;20037;-68
2021/05/17 00:56:57;;;;;;;6.10;1.92;;;;;;;8.38;72.90;99720.91;5037580;28;20025;-68
2021/05/17 00:59:23;;;;;;;3.42;1.70;;;;;;;8.35;73.63;99725.31;5022158;28;20480;-68
2021/05/17 01:01:48;;;;;;;5.65;1.77;;;;;;;8.33;73.98;99734.03;5037268;28;20052;-68
2021/05/17 01:04:14;;;;;;;4.53;1.90;;;;;;;8.52;73.80;99731.78;5020082;28;20049;-68
2021/05/17 01:06:41;;;;;;;6.72;2.22;;;;;;;8.82;73.36;99726.53;5032012;28;20026;-68
2021/05/17 01:09:07;;;;;;;4.80;1.70;;;;;;;8.88;72.17;99726.34;5030946;28;20026;-68
2021/05/17 01:11:34;;;;;;;4.50;1.70;;;;;;;8.74;72.92;99731.13;5020158;28;20120;-67
2021/05/17 01:14:02;;;;;;;5.05;2.00;;;;;;;8.59;73.25;99735.03;5017501;28;20029;-68
2021/05/17 01:16:29;;;;;;;8.75;2.22;;;;;;;8.76;73.12;99726.72;5014926;28;20029;-68
2021/05/17 01:18:55;;;;;;;5.20;2.03;;;;;;;8.60;73.33;99731.53;5021672;28;20029;-68
2021/05/17 01:21:22;;;;;;;4.95;2.08;;;;;;;8.53;72.97;99741.28;5037698;28;20060;-68
2021/05/17 01:23:55;;;;;;;5.53;2.33;;;;;;;8.56;73.53;99745.53;5020767;28;20024;-68
2021/05/17 01:26:26;;;;;;;7.00;2.17;;;;;;;8.65;72.83;99747.00;5020713;28;20021;-67
2021/05/17 01:28:55;;;;;;;6.43;2.53;;;;;;;8.71;72.53;99741.63;5018548;28;20028;-68
2021/05/17 01:31:20;;;;;;;5.97;2.05;;;;;;;8.61;73.12;99743.63;5035550;28;20562;-68
2021/05/17 01:33:47;;;;;;;9.18;2.50;;;;;;;8.71;73.21;99755.47;5020096;28;20021;-69
2021/05/17 01:36:14;;;;;;;5.88;2.60;;;;;;;8.62;73.21;99757.50;5019941;28;20033;-68
2021/05/17 01:38:49;;;;;;;5.93;2.23;;;;;;;8.56;73.38;99751.59;5020187;28;20559;-68
2021/05/17 01:41:16;;;;;;;5.68;2.28;;;;;;;8.37;73.87;99760.00;5031056;28;20262;-68
2021/05/17 01:43:46;;;;;;;5.82;2.42;;;;;;;8.06;74.61;99750.44;5031252;28;20075;-67
2021/05/17 01:46:19;;;;;;;7.55;2.55;;;;;;;7.90;75.11;99749.97;5019525;28;20028;-67
2021/05/17 01:48:45;;;;;;;6.82;2.75;;;;;;;7.86;75.65;99758.75;5022256;28;20479;-68
2021/05/17 01:51:19;;;;;;;9.85;3.15;;;;;;;7.82;76.10;99767.53;4999569;28;20032;-67
2021/05/17 01:53:46;;;;;;;6.28;2.38;;;;;;;7.90;76.00;99759.50;5017742;28;20025;-68
2021/05/17 01:56:12;;;;;;;6.65;2.72;;;;;;;8.01;75.35;99768.75;5034724;28;20025;-67
2021/05/17 01:58:39;;;;;;;7.15;2.55;;;;;;;8.02;75.21;99765.25;5011795;28;20026;-68
2021/05/17 02:01:06;;;;;;;6.07;2.08;;;;;;;8.07;75.63;99773.78;5023097;28;20037;-67
2021/05/17 02:03:36;;;;;;;6.15;2.88;;;;;;;8.05;75.23;99772.94;5034148;28;20041;-68
2021/05/17 02:06:02;;;;;;;5.95;2.58;;;;;;;8.07;74.96;99773.78;5021010;28;20427;-68
2021/05/17 02:08:29;;;;;;;7.88;3.10;;;;;;;8.13;75.26;99782.31;5017050;28;20025;-67
2021/05/17 02:10:55;;;;;;;6.80;2.78;;;;;;;7.97;75.03;99780.13;5025211;28;20140;-67
2021/05/17 02:13:21;;;;;;;5.78;2.58;;;;;;;8.04;74.80;99784.25;5009122;28;20036;-68
2021/05/17 02:15:48;;;;;;;6.18;2.88;;;;;;;8.02;74.77;99786.03;5019885;28;20036;-68
2021/05/17 02:18:14;;;;;;;7.28;2.85;;;;;;;8.01;74.87;99793.91;5015525;28;20584;-67
2021/05/17 02:20:41;;;;;;;6.50;2.72;;;;;;;7.94;75.09;99792.34;5018917;28;20071;-69
2021/05/17 02:23:13;;;;;;;6.07;2.30;;;;;;;7.95;75.19;99789.69;5020924;28;20024;-67
2021/05/17 02:25:50;;;;;;;9.00;3.08;;;;;;;7.90;75.64;99799.34;5017227;28;20039;-68
2021/05/17 02:28:17;;;;;;;7.57;2.80;;;;;;;7.84;75.42;99796.06;5020115;28;20033;-67
2021/05/17 02:30:43;;;;;;;5.63;2.60;;;;;;;7.63;75.92;99802.66;4996782;28;20025;-68
2021/05/17 02:33:09;;;;;;;6.25;2.88;;;;;;;7.47;76.37;99803.06;5013153;28;20034;-67
2021/05/17 02:35:36;;;;;;;5.93;2.78;;;;;;;7.23;77.28;99808.81;5015569;28;20025;-67
2021/05/17 02:38:03;;;;;;;6.80;2.90;;;;;;;7.15;77.60;99815.97;5035997;28;20029;-67
2021/05/17 02:40:29;;;;;;;5.40;2.20;;;;;;;7.14;77.74;99815.06;5017790;28;20112;-68
2021/05/17 02:43:01;;;;;;;6.20;2.55;;;;;;;7.05;78.04;99815.31;5034334;28;20536;-68
2021/05/17 02:45:27;;;;;;;6.43;2.95;;;;;;;7.02;77.77;99821.41;5022215;28;20095;-68
2021/05/17 02:47:54;;;;;;;9.35;3.50;;;;;;;6.95;78.32;99825.03;5019070;28;20578;-67
2021/05/17 02:50:47;;;;;;;5.88;2.72;;;;;;;6.94;78.69;99828.50;5030214;28;20044;-67
2021/05/17 02:53:31;;;;;;;7.18;3.22;;;;;;;6.96;78.86;99831.94;5028884;28;20061;-68
2021/05/17 02:55:58;;;;;;;9.27;4.03;;;;;;;6.80;79.75;99835.75;5015400;28;20033;-67
2021/05/17 02:58:28;;;;;;;8.55;4.45;;;;;;;6.67;79.73;99818.72;4997831;28;20063;-68
2021/05/17 03:01:13;;;;;;;6.57;3.45;;;;;;;6.67;80.08;99840.31;5036483;28;20140;-68
2021/05/17 03:03:48;;;;;;;6.32;3.00;;;;;;;6.76;80.12;99839.28;5027568;28;20045;-67
2021/05/17 03:06:23;;;;;;;9.13;3.25;;;;;;;6.79;79.72;99839.19;5032361;28;20021;-67
2021/05/17 03:09:05;;;;;;;6.95;3.15;;;;;;;6.78;79.57;99842.69;5033457;28;20112;-67
2021/05/17 03:11:31;;;;;;;6.85;3.53;;;;;;;6.71;80.33;99846.31;5019175;28;20029;-67
2021/05/17 03:13:58;;;;;;;6.60;3.55;;;;;;;6.76;79.85;99847.94;5019218;28;20032;-67
2021/05/17 03:16:25;;;;;;;8.52;3.38;;;;;;;6.71;80.07;99841.97;5016677;28;20029;-67
2021/05/17 03:18:53;;;;;;;7.90;3.25;;;;;;;6.65;79.92;99851.63;5013989;28;20029;-68
2021/05/17 03:21:20;;;;;;;7.18;3.13;;;;;;;6.62;80.36;99851.69;5018795;28;20033;-67
2021/05/17 03:23:50;;;;;;;10.18;3.70;;;;;;;6.66;80.08;99858.53;5035753;28;20883;-68
2021/05/17 03:26:18;;;;;;;7.32;3.03;;;;;;;6.61;80.04;99860.34;5009323;28;20136;-67
2021/05/17 03:28:43;;;;;;;6.70;2.80;;;;;;;6.62;80.43;99872.44;5019420;28;20512;-68
2021/05/17 03:31:09;;;;;;;8.48;3.10;;;;;;;6.44;80.81;99868.47;5019654;28;20079;-68
2021/05/17 03:33:34;;;;;;;7.35;3.17;;;;;;;6.45;80.81;99868.44;5020989;28;20029;-67
2021/05/17 03:36:00;;;;;;;6.05;2.95;;;;;;;6.48;80.98;99876.13;5022842;28;20116;-67
2021/05/17 03:38:26;;;;;;;8.52;3.15;;;;;;;6.50;80.94;99884.78;5024057;28;20077;-67
2021/05/17 03:40:51;;;;;;;6.45;3.22;;;;;;;6.43;81.40;99879.72;5038260;28;20033;-67
2021/05/17 03:43:17;;;;;;;6.95;3.17;;;;;;;6.43;81.20;99888.34;5023185;28;20479;-68
2021/05/17 03:45:44;;;;;;;7.10;3.22;;;;;;;6.39;81.09;99901.44;5024877;28;20032;-67
2021/05/17 03:48:09;;;;;;;7.05;3.13;;;;;;;6.37;81.43;99898.84;5024448;28;20048;-68
2021/05/17 03:50:35;;;;;;;6.78;3.28;;;;;;;6.24;82.34;99898.22;5038984;28;20099;-68
2021/05/17 03:53:00;;;;;;;6.07;2.67;;;;;;;6.25;82.51;99904.25;5038876;28;20096;-67
2021/05/17 03:55:26;;;;;;;4.35;2.30;;;;;;;6.27;82.22;99912.00;5026411;28;20112;-67
2021/05/17 03:57:55;;;;;;;7.78;2.67;;;;;;;6.29;81.99;99911.09;5021653;28;20057;-67
2021/05/17 04:00:20;;;;;;;5.93;2.78;;;;;;;6.36;81.92;99910.09;5007578;28;20594;-68
2021/05/17 04:02:46;;;;;;;6.50;2.22;;;;;;;6.31;81.54;99893.78;5015131;28;20033;-68
2021/05/17 04:15:48;;;;;;;5.45;2.35;;;;;;;6.13;82.38;99923.47;5042023;28;20024;-67
2021/05/17 04:18:16;;;;;;;5.85;2.90;;;;;;;6.13;82.61;99930.38;5042823;28;20025;-67
2021/05/17 04:20:42;;;;;;;6.97;2.72;;;;;;;6.06;82.34;99928.78;5007501;28;20087;-67
2021/05/17 04:23:07;;;;;;;7.00;2.60;;;;;;;6.05;82.42;99935.69;5043168;28;20033;-67
2021/05/17 04:25:33;;;;;;;5.45;2.40;;;;;;;5.97;82.63;99938.41;5040838;28;20536;-68
2021/05/17 04:27:58;;;;;;;6.32;2.78;;;;;;;5.93;83.11;99948.84;5046470;28;20044;-68
2021/05/17 04:30:24;;;;;;;6.95;3.05;;;;;;;5.93;82.89;99952.31;5059900;28;20110;-67
2021/05/17 04:32:50;;;;;;;7.65;2.80;;;;;;;5.83;83.07;99948.13;5029942;28;20032;-68
2021/05/17 04:35:16;;;;;;;5.70;2.40;;;;;;;5.77;83.33;99961.16;5059906;28;20075;-67
2021/05/17 04:37:42;;;;;;;6.43;2.45;;;;;;;5.75;83.46;99949.13;5023811;28;20067;-67
2021/05/17 04:40:08;;;;;;;6.53;2.75;;;;;;;5.75;83.58;99957.75;5042697;28;20112;-67
2021/05/17 04:42:34;;;;;;;5.75;2.67;;;;;;;5.67;83.91;99956.97;5064820;28;20036;-67
2021/05/17 04:45:00;;;;;;;5.45;2.53;;;;;;;5.79;83.50;99964.59;5009201;28;20044;-68
2021/05/17 04:47:25;;;;;;;5.90;2.33;;;;;;;5.71;83.99;99956.06;5027674;28;20518;-67
2021/05/17 04:49:51;;;;;;;5.55;2.65;;;;;;;5.84;83.49;99961.94;5046604;28;20086;-67
2021/05/17 04:52:17;;;;;;;5.75;2.55;;;;;;;5.79;83.79;99964.59;5056410;28;20028;-67
2021/05/17 04:54:43;;;;;;;5.15;2.30;;;;;;;5.78;84.28;99970.66;5056583;28;20029;-67
2021/05/17 04:57:09;;;;;;;7.00;2.60;;;;;;;5.85;84.06;99977.44;5059084;28;20036;-67
2021/05/17 04:59:34;;;;;;;5.07;2.35;;;;;;;5.75;84.46;99969.84;5022162;28;20089;-67
2021/05/17 05:02:00;;;;;;;5.30;2.22;;;;;;;5.86;84.15;99973.97;5041110;28;20020;-67
2021/05/17 05:04:25;;;;;;;6.05;2.63;;;;;;;5.83;84.30;99981.81;5040846;28;20114;-67
2021/05/17 05:06:51;;;;;;;5.72;2.50;;;;;;;5.89;83.84;99973.09;5041082;28;20135;-68
2021/05/17 05:09:17;;;;;;;7.65;2.80;;;;;;;5.93;84.47;99979.94;5043273;28;20108;-67
2021/05/17 05:11:42;;;;;;;7.05;2.38;;;;;;;6.03;84.15;99991.88;5011953;28;20469;-67
2021/05/17 05:14:08;;;;;;;6.93;2.53;;;;;;;5.98;84.39;99989.38;5043431;28;20539;-67
2021/05/17 05:16:33;;;;;;;4.05;2.15;;;;;;;6.08;84.25;99995.25;5038657;28;20021;-67
2021/05/17 05:18:59;;;;;;;5.88;2.83;;;;;;;6.16;84.01;100000.31;5042777;28;20511;-68
2021/05/17 05:21:24;;;;;;;5.40;2.53;;;;;;;6.17;84.22;100005.47;5042137;28;20529;-67
2021/05/17 05:23:50;;;;;;;5.93;2.20;;;;;;;6.27;83.84;100019.16;5023342;28;20025;-67
2021/05/17 05:29:03;;;;;;;7.07;2.50;;;;;;;6.48;83.21;100013.59;5042871;28;20028;-67
2021/05/17 05:33:55;;;;;;;6.10;2.38;;;;;;;6.52;83.62;100014.41;5056612;28;20025;-67
2021/05/17 05:36:21;;;;;;;5.57;2.33;;;;;;;6.58;83.44;100027.28;5040442;28;20035;-67
2021/05/17 05:38:47;;;;;;;5.80;2.70;;;;;;;6.49;83.66;100028.31;5012223;28;20028;-67
2021/05/17 05:41:12;;;;;;;6.10;2.35;;;;;;;6.50;83.91;100035.19;5040767;28;20029;-67
2021/05/17 05:43:37;;;;;;;6.00;2.55;;;;;;;6.60;83.63;100030.72;5042507;28;20098;-67
2021/05/17 05:46:03;;;;;;;4.88;2.25;;;;;;;6.70;83.23;100034.00;5058014;28;20030;-67
2021/05/17 05:48:29;;;;;;;4.20;1.70;;;;;;;6.74;83.27;100038.25;5022712;28;20041;-67
2021/05/17 05:50:55;;;;;;;6.00;2.20;;;;;;;6.82;83.07;100041.56;5039105;28;20025;-67
2021/05/17 05:53:20;;;;;;;5.15;2.35;;;;;;;6.84;83.09;100037.19;5056521;28;20036;-67
2021/05/17 05:55:47;;;;;;;4.88;2.25;;;;;;;6.91;83.00;100028.44;5015067;28;20028;-68
2021/05/17 05:58:13;;;;;;;5.28;2.40;;;;;;;6.97;82.61;100030.06;5034778;28;20021;-67
2021/05/17 06:00:40;;;;;;;5.80;2.33;;;;;;;7.05;82.22;100032.53;5019428;28;20036;-67
2021/05/17 06:03:05;;;;;;;7.40;2.35;;;;;;;7.14;81.83;100034.91;5038511;28;20128;-67
2021/05/17 06:05:31;;;;;;;6.32;2.47;;;;;;;7.26;82.01;100037.28;5039700;28;20115;-68
2021/05/17 06:07:58;;;;;;;5.35;1.95;;;;;;;7.16;81.71;100036.59;5055575;28;20111;-67
2021/05/17 06:10:24;;;;;;;6.93;2.63;;;;;;;7.39;81.46;100054.31;5021910;28;20021;-68
2021/05/17 06:12:51;;;;;;;6.05;2.45;;;;;;;7.29;81.09;100022.47;5038257;28;20029;-67
2021/05/17 06:15:18;;;;;;;6.68;2.58;;;;;;;7.50;81.40;100051.50;5039104;28;20358;-67
2021/05/17 06:17:46;;;;;;;7.95;2.47;;;;;;;7.50;81.57;100062.78;5053571;28;20029;-67
2021/05/17 06:20:12;;;;;;;6.05;2.45;;;;;;;7.74;81.36;100065.72;5015353;28;20668;-67
2021/05/17 06:22:38;;;;;;;6.20;2.60;;;;;;;7.83;81.55;100070.75;5021625;28;20029;-67
2021/05/17 06:25:11;;;;;;;7.78;2.25;;;;;;;7.91;80.60;100061.03;5054439;28;20028;-68
2021/05/17 06:27:38;;;;;;;6.40;2.63;;;;;;;8.09;80.94;100077.09;5053494;28;20066;-67
2021/05/17 06:30:06;;;;;;;5.60;2.47;;;;;;;8.32;79.44;100069.66;5017591;28;20025;-67
2021/05/17 06:32:32;;;;;;;5.05;2.50;;;;;;;8.39;79.96;100073.81;5012865;28;20555;-67
2021/05/17 06:34:59;;;;;;;3.58;1.75;;;;;;;8.77;77.98;100082.47;5035027;28;20875;-68
2021/05/17 06:37:24;;;;;;;6.37;2.23;;;;;;;8.81;78.22;100073.66;5035974;28;20373;-69
2021/05/17 06:39:50;;;;;;;5.57;2.05;;;;;;;9.01;76.83;100079.19;5040408;28;20036;-67
2021/05/17 06:42:16;;;;;;;6.95;1.67;;;;;;;9.04;76.81;100075.69;5053786;28;20044;-67
2021/05/17 06:44:41;;;;;;;5.15;2.05;;;;;;;9.17;76.58;100081.41;5039005;28;20039;-67
2021/05/17 06:47:10;;;;;;;4.55;1.90;;;;;;;9.41;75.32;100088.56;5053519;28;20032;-67
2021/05/17 06:49:36;;;;;;;7.88;2.05;;;;;;;9.43;75.11;100078.06;5020833;28;20369;-67
2021/05/17 06:52:03;;;;;;;5.53;1.80;;;;;;;9.47;74.56;100071.88;5036966;28;20060;-67
2021/05/17 06:54:29;;;;;;;3.60;1.80;;;;;;;9.70;74.54;100086.88;5039795;28;20035;-67
2021/05/17 06:59:23;;;;;;;5.80;1.90;;;;;;;10.00;74.01;100098.16;5020266;28;20033;-67
2021/05/17 07:01:49;;;;;;;7.95;2.15;;;;;;;10.14;73.12;100103.84;5021500;28;20463;-67
2021/05/17 07:04:16;;;;;;;3.67;1.55;;;;;;;10.10;71.79;100103.06;5037821;28;20045;-67
2021/05/17 07:06:52;;;;;;;3.27;1.40;;;;;;;10.49;70.46;100105.38;5034407;28;20032;-67
2021/05/17 07:14:28;;;;;;;3.30;1.63;;;;;;;10.32;71.74;100107.66;5040115;28;20037;-67
2021/05/17 07:16:53;;;;;;;5.57;2.00;;;;;;;10.37;71.07;100113.59;5010958;28;20029;-67
2021/05/17 07:19:19;;;;;;;3.05;1.40;;;;;;;10.50;70.13;100112.31;5041511;28;20056;-67
2021/05/17 07:24:28;;;;;;;6.07;1.63;;;;;;;11.07;67.74;100108.66;5038512;28;20063;-67
2021/05/17 07:26:54;;;;;;;3.85;1.45;;;;;;;11.28;67.15;100106.22;5014996;28;20021;-68
2021/05/17 07:29:21;;;;;;;5.30;1.80;;;;;;;11.05;68.90;100113.09;5020426;28;20496;-67
2021/05/17 07:31:47;;;;;;;4.50;1.50;;;;;;;11.02;69.14;100109.72;5028187;28;20130;-68
2021/05/17 07:34:14;;;;;;;4.45;1.58;;;;;;;10.79;70.07;100113.09;5036353;28;20054;-67
2021/05/17 07:36:39;;;;;;;2.97;1.20;;;;;;;10.86;70.10;100119.84;5050545;28;20036;-67
2021/05/17 07:39:06;;;;;;;4.05;1.10;;;;;;;10.98;68.61;100124.66;5010965;28;20040;-68
2021/05/17 07:41:31;;;;;;;3.90;1.65;;;;;;;11.05;69.94;100123.56;5019962;28;20078;-67
2021/05/17 07:43:57;;;;;;;3.20;1.40;;;;;;;11.34;68.36;100124.28;5018856;28;20021;-67
2021/05/17 07:46:23;;;;;;;4.63;1.42;;;;;;;10.85;69.77;100139.03;5038847;28;20465;-67
2021/05/17 07:51:33;;;;;;;3.45;1.52;;;;;;;11.38;68.48;100134.59;5052063;28;20590;-68
2021/05/17 07:53:59;;;;;;;3.92;1.60;;;;;;;11.43;68.08;100121.34;5024868;28;20560;-68
2021/05/17 07:56:25;;;;;;;3.22;1.30;;;;;;;11.86;67.00;100135.50;5037912;28;20033;-68
2021/05/17 07:58:51;;;;;;;3.95;1.65;;;;;;;12.07;66.16;100144.34;5054872;28;20115;-67
2021/05/17 08:01:17;;;;;;;4.05;1.45;;;;;;;11.96;64.18;100142.13;5039696;28;20024;-68
2021/05/17 08:03:43;;;;;;;5.13;1.55;;;;;;;12.23;64.63;100144.63;5038288;28;20195;-67
2021/05/17 08:06:08;;;;;;;6.25;1.20;;;;;;;12.24;64.46;100146.31;5055989;28;20649;-67
2021/05/17 08:08:34;;;;;;;2.53;1.02;;;;;;;12.02;63.75;100149.75;5024273;28;20044;-68
2021/05/17 08:11:01;;;;;;;2.33;0.90;;;;;;;11.95;63.66;100148.25;5057317;28;20471;-67
2021/05/17 08:13:27;;;;;;;3.15;0.98;;;;;;;12.03;63.23;100146.22;5019371;28;20473;-67
2021/05/17 08:15:53;;;;;;;2.15;0.77;;;;;;;12.24;62.15;100146.31;5038302;28;20483;-68
2021/05/17 08:18:19;;;;;;;9.25;1.27;;;;;;;12.59;61.53;100142.31;5041359;28;20036;-67
2021/05/17 08:20:44;;;;;;;4.97;1.10;;;;;;;12.63;60.06;100144.78;5041551;28;20040;-67
2021/05/17 08:23:13;;;;;;;1.20;0.80;;;;;;;12.90;60.22;100147.19;5043726;28;20032;-67
2021/05/17 08:25:41;;;;;;;10.38;1.20;;;;;;;13.21;58.94;100141.50;5021987;28;20025;-67
2021/05/17 08:28:06;;;;;;;2.72;1.00;;;;;;;13.50;59.57;100143.75;5058604;28;20033;-67
2021/05/17 08:30:40;;;;;;;3.78;1.02;;;;;;;13.50;58.50;100150.78;5043814;28;20067;-68
2021/05/17 08:33:05;;;;;;;2.30;0.90;;;;;;;13.59;58.68;100152.16;5041879;28;20059;-67
2021/05/17 08:35:32;;;;;;;1.70;0.80;;;;;;;13.69;57.33;100149.06;5042927;28;20036;-68
2021/05/17 08:37:57;;;;;;;3.35;0.98;;;;;;;13.99;55.50;100145.97;5009503;28;20025;-68
2021/05/17 08:40:26;;;;;;;2.20;0.90;;;;;;;13.93;55.86;100143.63;5038837;28;20025;-68
2021/05/17 08:42:55;;;;;;;3.03;1.30;;;;;;;13.96;56.52;100148.72;5042241;28;20032;-67
2021/05/17 08:45:21;;;;;;;1.63;0.70;;;;;;;14.14;55.40;100154.91;5039240;28;20017;-68
2021/05/17 08:47:47;;;;;;;2.33;0.85;;;;;;;14.27;54.62;100150.78;5039695;28;20024;-68
2021/05/17 08:50:13;;;;;;;4.60;1.05;;;;;;;13.98;54.72;100146.88;5041498;28;20021;-68
2021/05/17 08:52:39;;;;;;;5.28;1.38;;;;;;;13.71;56.73;100162.94;5057122;28;20090;-68
2021/05/17 08:55:09;;;;;;;3.08;0.90;;;;;;;13.32;59.37;100159.44;5046292;28;20033;-68
2021/05/17 08:57:35;;;;;;;4.20;1.08;;;;;;;13.08;59.78;100167.41;5041133;28;20113;-68
2021/05/17 09:00:00;;;;;;;2.63;0.93;;;;;;;12.72;60.58;100154.88;5041982;28;20756;-68
2021/05/17 09:02:27;;;;;;;4.88;0.98;;;;;;;13.08;59.92;100164.78;5023497;28;20026;-68
2021/05/17 09:05:15;;;;;;;3.30;0.80;;;;;;;13.40;58.18;100158.19;5036165;28;20144;-68
2021/05/17 09:07:48;;;;;;;4.10;1.20;;;;;;;13.75;55.24;100158.44;5039637;28;20036;-68
2021/05/17 09:10:20;;;;;;;3.08;0.70;;;;;;;13.76;56.77;100163.59;5025194;28;20507;-67
2021/05/17 09:12:58;;;;;;;2.22;1.45;;;;;;;13.83;56.38;100165.94;5024171;28;20033;-68
2021/05/17 09:15:39;;;;;;;2.58;0.70;;;;;;;13.96;55.96;100157.47;5057812;28;20084;-67
2021/05/17 09:18:16;;;;;;;2.00;0.80;;;;;;;14.33;53.49;100165.41;5043132;28;20551;-68
2021/05/17 09:20:43;;;;;;;2.33;0.70;;;;;;;14.54;51.72;100164.44;5042059;28;20021;-68
2021/05/17 09:23:11;;;;;;;1.95;0.70;;;;;;;14.99;50.56;100165.75;5042682;28;20024;-68
2021/05/17 09:25:38;;;;;;;1.90;0.65;;;;;;;15.25;48.98;100172.34;5019355;28;20492;-68
2021/05/17 09:28:05;;;;;;;2.95;0.80;;;;;;;15.20;50.46;100169.94;5057728;28;20350;-68
2021/05/17 09:30:44;;;;;;;;;;;;;;;15.36;49.58;100170.03;5058155;28;20025;-68
2021/05/17 09:33:13;;;;;;;2.22;0.63;;;;;;;15.42;49.85;100168.88;5042402;28;19916;-68
2021/05/17 09:35:38;;;;;;;4.15;1.00;;;;;;;15.31;50.64;100178.16;5059115;28;20373;-68
2021/05/17 09:38:06;;;;;;;2.45;0.73;;;;;;;15.34;49.86;100178.94;5018703;28;20029;-67
2021/05/17 09:40:33;;;;;;;1.40;0.88;;;;;;;15.16;50.73;100178.94;5056390;28;20035;-68
2021/05/17 09:43:04;;;;;;;3.60;1.30;;;;;;;15.37;51.03;100179.63;5023632;28;20809;-68
2021/05/17 09:45:31;;;;;;;5.13;1.67;;;;;;;16.94;47.86;100185.28;5052017;28;20486;-68
2021/05/17 09:47:57;;;;;;;1.42;0.93;;;;;;;18.78;42.74;100172.28;5022310;28;20481;-68
2021/05/17 09:50:23;;;;;;;1.85;0.80;;;;;;;19.63;37.64;100168.38;5037467;28;20109;-68
2021/05/17 09:52:48;;;;;;;2.65;0.70;;;;;;;19.73;37.14;100158.84;5040760;28;20710;-68
2021/05/17 09:55:14;;;;;;;4.50;0.80;;;;;;;18.62;37.75;100167.97;5041504;28;20070;-68
2021/05/17 09:57:46;;;;;;;2.50;0.70;;;;;;;17.18;39.78;100173.28;5040721;28;20118;-68
2021/05/17 10:00:24;;;;;;;1.52;0.57;;;;;;;16.81;40.67;100178.06;5033408;28;20373;-68
2021/05/17 10:02:54;;;;;;;1.58;0.63;;;;;;;16.18;44.24;100170.13;5021584;28;20037;-68
2021/05/17 10:05:33;;;;;;;4.57;1.02;;;;;;;15.58;45.97;100180.31;5057403;28;20044;-68
2021/05/17 10:08:02;;;;;;;2.63;0.65;;;;;;;15.72;44.24;100177.84;5023583;28;20123;-68
2021/05/17 10:10:28;;;;;;;3.55;0.82;;;;;;;14.86;46.72;100173.41;5050109;28;20075;-68
2021/05/17 10:12:55;;;;;;;2.00;0.80;;;;;;;15.34;47.65;100176.28;5056464;28;20021;-68
2021/05/17 10:15:22;;;;;;;4.82;0.90;;;;;;;15.49;46.67;100186.03;5021502;28;20028;-68
2021/05/17 10:17:49;;;;;;;2.92;0.77;;;;;;;15.35;47.34;100188.50;5023157;28;20033;-68
2021/05/17 10:20:17;;;;;;;1.80;0.68;;;;;;;15.41;44.86;100183.81;5055928;28;20026;-68
2021/05/17 10:22:44;;;;;;;1.85;0.50;;;;;;;16.28;43.98;100187.13;5056537;28;20460;-68
2021/05/17 10:25:12;;;;;;;3.47;0.70;;;;;;;16.57;42.50;100187.28;5023369;28;20056;-68
2021/05/17 10:27:49;;;;;;;2.35;0.90;;;;;;;17.37;42.59;100189.75;5023225;28;20147;-68
2021/05/17 10:30:20;;;;;;;2.88;0.90;;;;;;;17.50;41.63;100178.47;5040464;28;20423;-68
2021/05/17 10:32:51;;;;;;;2.70;0.68;;;;;;;17.58;38.22;100189.41;5039006;28;20020;-68
2021/05/17 10:35:23;;;;;;;2.20;0.93;;;;;;;17.96;36.75;100181.00;5041467;28;20033;-68
2021/05/17 10:37:49;;;;;;;3.92;0.80;;;;;;;19.45;36.56;100181.88;5038716;28;20036;-68
2021/05/17 10:40:50;;;;;;;1.08;0.60;;;;;;;20.44;34.35;100183.88;5043179;28;20492;-68
2021/05/17 10:46:37;;;;;;;1.23;0.70;;;;;;;25.59;25.76;100181.16;5033752;28;20056;-68
2021/05/17 10:49:23;;;;;;;2.58;0.82;;;;;;;25.85;24.62;100178.78;5037333;28;20036;-68
2021/05/17 10:51:51;;;;;;;3.00;0.70;;;;;;;24.56;25.22;100189.72;5037433;28;20025;-68
2021/05/17 10:54:29;;;;;;;2.97;0.90;;;;;;;21.81;29.93;100191.34;5035314;28;20036;-68
2021/05/17 10:57:01;;;;;;;2.60;0.85;;;;;;;23.28;29.19;100195.50;5038700;28;20063;-68
2021/05/17 11:02:23;;;;;;;3.85;0.80;;;;;;;19.87;32.43;100187.88;5037235;28;20032;-68
2021/05/17 11:04:48;;;;;;;2.67;0.77;;;;;;;19.99;35.17;100188.81;5005851;28;20153;-68
2021/05/17 11:07:30;;;;;;;3.80;1.05;;;;;;;19.87;34.52;100190.53;5001275;28;20755;-68
2021/05/17 11:10:06;;;;;;;1.30;0.70;;;;;;;19.13;35.33;100201.72;5033895;28;20030;-68
2021/05/17 11:12:41;;;;;;;2.50;0.77;;;;;;;18.41;37.11;100196.63;4991191;28;20025;-68
2021/05/17 11:15:11;;;;;;;2.47;0.70;;;;;;;17.95;37.69;100192.50;5000408;28;20033;-68
2021/05/17 11:18:02;;;;;;;1.77;0.60;;;;;;;18.56;37.07;100201.88;5001548;28;20401;-68
2021/05/17 11:23:13;;;;;;;4.05;0.80;;;;;;;19.05;37.22;100193.44;5000703;28;20033;-69
2021/05/17 11:25:56;;;;;;;3.08;0.60;;;;;;;18.32;38.29;100194.56;4999894;28;20042;-69
2021/05/17 11:28:34;;;;;;;3.85;0.90;;;;;;;21.27;33.42;100202.53;4995850;28;20030;-68
2021/05/17 11:31:04;;;;;;;3.15;0.80;;;;;;;20.75;33.52;100206.41;4997828;28;20561;-68
2021/05/17 11:33:53;;;;;;;2.15;0.80;;;;;;;23.22;29.87;100196.00;5001818;28;20022;-68
2021/05/17 11:36:22;;;;;;;1.25;0.63;;;;;;;23.58;26.72;100183.22;5028954;28;20025;-68
2021/05/17 11:39:18;;;;;;;1.42;0.60;;;;;;;20.16;30.90;100198.22;5000367;28;20030;-68
2021/05/17 11:41:53;;;;;;;3.17;0.80;;;;;;;19.49;33.21;100206.34;4999484;28;20060;-68
2021/05/17 11:44:29;;;;;;;2.70;0.70;;;;;;;22.02;30.93;100197.63;4999725;28;20029;-68
2021/05/17 11:47:10;;;;;;;3.10;0.93;;;;;;;25.57;26.32;100185.84;4998702;28;20026;-68
2021/05/17 11:49:37;;;;;;;1.75;0.60;;;;;;;23.98;28.53;100194.84;4992740;28;20357;-69
2021/05/17 11:52:05;;;;;;;3.30;0.60;;;;;;;19.65;32.07;100198.25;4996822;28;20029;-68
2021/05/17 11:54:35;;;;;;;3.35;0.80;;;;;;;19.45;33.83;100208.34;5000317;28;20042;-68
2021/05/17 11:57:01;;;;;;;1.70;0.80;;;;;;;20.79;32.17;100207.88;5002845;28;20636;-68
2021/05/17 11:59:29;;;;;;;2.80;0.70;;;;;;;23.40;30.88;100202.44;5002012;28;20044;-68
2021/05/17 12:01:57;;;;;;;1.60;0.70;;;;;;;22.70;31.73;100203.75;5001198;28;20022;-69
2021/05/17 12:04:29;;;;;;;1.77;0.80;;;;;;;23.72;28.88;100202.44;5020805;28;20041;-68
2021/05/17 12:06:57;;;;;;;3.42;0.95;;;;;;;23.57;30.42;100201.03;5042758;28;20439;-68
2021/05/17 12:09:39;;;;;;;2.25;0.70;;;;;;;21.42;31.89;100213.84;5028039;28;20056;-68
2021/05/17 12:12:08;;;;;;;2.63;1.02;;;;;;;19.67;36.10;100217.56;5042135;28;20021;-69
2021/05/17 12:14:36;;;;;;;3.28;0.68;;;;;;;20.94;32.33;100208.56;5051384;28;20044;-68
2021/05/17 12:17:27;;;;;;;;;;;;;;;21.03;33.64;100210.50;5034786;28;20123;-68